createdAt,value
2023-06-15T00:01:24.235Z,13.00
2023-06-15T00:04:18.763Z,13.00
2023-06-15T00:07:13.054Z,12.40
2023-06-15T00:10:08.148Z,11.70
2023-06-15T00:13:02.043Z,11.80
2023-06-15T00:15:55.985Z,12.30
2023-06-15T00:18:50.003Z,12.90
2023-06-15T00:21:43.980Z,12.70
2023-06-15T00:24:37.981Z,11.40
2023-06-15T00:27:32.069Z,17.20
2023-06-15T00:30:27.304Z,12.90
2023-06-15T00:33:21.628Z,12.90
2023-06-15T00:36:16.408Z,14.20
2023-06-15T00:39:10.356Z,12.90
2023-06-15T00:42:04.252Z,11.60
2023-06-15T00:44:58.503Z,11.20
2023-06-15T00:47:53.065Z,12.90
2023-06-15T00:50:47.753Z,12.10
2023-06-15T00:53:43.570Z,14.00
2023-06-15T00:56:38.235Z,12.00
2023-06-15T00:59:32.579Z,10.00
2023-06-15T01:02:26.615Z,9.90
2023-06-15T01:05:24.252Z,8.80
2023-06-15T01:08:23.462Z,11.70
2023-06-15T01:11:18.442Z,11.10
2023-06-15T01:14:12.574Z,10.20
2023-06-15T01:17:10.459Z,10.10
2023-06-15T01:20:06.973Z,10.50
2023-06-15T01:23:21.661Z,10.10
2023-06-15T01:26:17.673Z,11.00
2023-06-15T01:29:12.736Z,9.40
2023-06-15T01:32:07.785Z,9.60
2023-06-15T01:35:01.781Z,10.60
2023-06-15T01:37:55.869Z,9.10
2023-06-15T01:40:52.946Z,11.50
2023-06-15T01:43:48.611Z,8.70
2023-06-15T01:46:44.176Z,12.00
2023-06-15T01:49:38.441Z,10.10
2023-06-15T01:52:32.475Z,8.80
2023-06-15T01:55:27.117Z,9.00
2023-06-15T01:58:21.269Z,9.40
2023-06-15T02:01:15.082Z,9.50
2023-06-15T02:04:09.287Z,8.50
2023-06-15T02:07:03.435Z,9.70
2023-06-15T02:09:58.330Z,9.50
2023-06-15T02:12:52.147Z,8.70
2023-06-15T02:15:46.082Z,9.30
2023-06-15T02:18:40.276Z,9.40
2023-06-15T02:21:34.150Z,9.50
2023-06-15T02:24:28.143Z,9.60
2023-06-15T02:27:22.431Z,10.10
2023-06-15T02:30:17.978Z,9.60
2023-06-15T02:33:11.936Z,9.30
2023-06-15T02:36:07.374Z,9.10
2023-06-15T02:39:02.130Z,12.10
2023-06-15T02:41:56.247Z,9.10
2023-06-15T02:44:50.321Z,10.00
2023-06-15T02:47:44.578Z,9.70
2023-06-15T02:50:38.602Z,11.10
2023-06-15T02:53:32.409Z,8.90
2023-06-15T02:56:26.424Z,9.20
2023-06-15T02:59:26.898Z,9.70
2023-06-15T03:02:22.106Z,10.30
2023-06-15T03:05:18.891Z,7.60
2023-06-15T03:08:14.213Z,9.80
2023-06-15T03:11:08.722Z,10.00
2023-06-15T03:14:02.626Z,8.70
2023-06-15T03:16:56.818Z,9.90
2023-06-15T03:19:51.725Z,8.90
2023-06-15T03:22:45.635Z,9.50
2023-06-15T03:25:39.468Z,8.30
2023-06-15T03:28:39.145Z,9.60
2023-06-15T03:31:42.495Z,9.20
2023-06-15T03:34:39.641Z,9.00
2023-06-15T03:37:33.491Z,9.80
2023-06-15T03:40:24.390Z,12.60
2023-06-15T03:43:18.691Z,11.40
2023-06-15T03:46:12.543Z,12.20
2023-06-15T03:49:06.711Z,12.10
2023-06-15T03:52:00.562Z,12.20
2023-06-15T03:54:54.668Z,11.10
2023-06-15T03:57:48.861Z,11.80
2023-06-15T04:00:44.705Z,12.10
2023-06-15T04:03:39.238Z,14.10
2023-06-15T04:06:34.071Z,11.80
2023-06-15T04:09:29.194Z,13.00
2023-06-15T04:12:23.451Z,13.20
2023-06-15T04:15:17.730Z,12.90
2023-06-15T04:18:11.841Z,12.70
2023-06-15T04:21:07.166Z,14.30
2023-06-15T04:24:01.115Z,16.90
2023-06-15T04:26:54.963Z,16.10
2023-06-15T04:29:51.123Z,13.70
2023-06-15T04:32:45.185Z,13.20
2023-06-15T04:35:41.904Z,14.50
2023-06-15T04:38:37.999Z,12.70
2023-06-15T04:41:32.463Z,12.50
2023-06-15T04:44:26.610Z,13.40
2023-06-15T04:47:21.351Z,15.10
2023-06-15T04:50:15.946Z,13.40
2023-06-15T04:53:10.551Z,13.50
2023-06-15T04:56:04.743Z,10.40
2023-06-15T04:58:59.094Z,9.40
2023-06-15T05:01:53.344Z,11.30
2023-06-15T05:04:47.594Z,15.70
2023-06-15T05:07:42.044Z,11.00
2023-06-15T05:10:44.654Z,9.90
2023-06-15T05:13:40.812Z,13.10
2023-06-15T05:16:34.630Z,12.00
2023-06-15T05:19:28.407Z,12.90
2023-06-15T05:22:22.254Z,10.80
2023-06-15T05:25:16.828Z,13.30
2023-06-15T05:28:10.944Z,11.50
2023-06-15T05:31:04.605Z,11.90
2023-06-15T05:33:58.651Z,12.10
2023-06-15T05:36:56.710Z,10.40
2023-06-15T05:39:51.440Z,11.40
2023-06-15T05:42:46.713Z,12.10
2023-06-15T05:45:41.307Z,14.00
2023-06-15T05:48:35.564Z,11.00
2023-06-15T05:51:29.446Z,9.20
2023-06-15T05:54:24.201Z,14.40
2023-06-15T05:57:18.528Z,13.60
2023-06-15T06:00:16.129Z,11.50
2023-06-15T06:06:02.982Z,12.60
2023-06-15T06:08:56.711Z,12.60
2023-06-15T06:11:50.731Z,12.80
2023-06-15T06:14:44.773Z,13.60
2023-06-15T06:17:58.745Z,12.10
2023-06-15T06:20:52.979Z,13.30
2023-06-15T06:23:47.111Z,12.50
2023-06-15T06:26:41.190Z,14.20
2023-06-15T06:29:35.462Z,15.60
2023-06-15T06:32:29.523Z,16.60
2023-06-15T06:35:23.664Z,16.40
2023-06-15T06:38:21.526Z,14.10
2023-06-15T06:41:15.589Z,14.00
2023-06-15T06:44:10.219Z,14.20
2023-06-15T06:47:04.928Z,16.20
2023-06-15T06:50:00.438Z,19.10
2023-06-15T06:52:54.220Z,15.70
2023-06-15T06:55:49.170Z,16.50
2023-06-15T06:58:43.469Z,16.00
2023-06-15T07:01:37.583Z,16.70
2023-06-15T07:04:31.556Z,13.50
2023-06-15T07:07:25.977Z,15.40
2023-06-15T07:10:20.544Z,15.30
2023-06-15T07:13:14.408Z,15.40
2023-06-15T07:16:08.811Z,17.20
2023-06-15T07:19:02.842Z,16.90
2023-06-15T07:21:56.973Z,16.20
2023-06-15T07:24:50.919Z,18.50
2023-06-15T07:27:44.803Z,17.70
2023-06-15T07:30:39.239Z,17.60
2023-06-15T07:33:33.398Z,18.00
2023-06-15T07:36:27.900Z,18.30
2023-06-15T07:39:22.197Z,16.50
2023-06-15T07:42:16.530Z,16.90
2023-06-15T07:45:12.985Z,16.40
2023-06-15T07:48:08.047Z,16.90
2023-06-15T07:51:02.209Z,19.80
2023-06-15T07:53:56.168Z,15.60
2023-06-15T07:56:50.106Z,16.00
2023-06-15T07:59:44.253Z,14.80
2023-06-15T08:02:38.556Z,15.70
2023-06-15T08:05:33.201Z,15.00
2023-06-15T08:08:27.872Z,13.50
2023-06-15T08:11:22.068Z,15.90
2023-06-15T08:14:16.082Z,19.80
2023-06-15T08:17:10.782Z,15.00
2023-06-15T08:20:08.783Z,19.40
2023-06-15T08:23:03.132Z,13.90
2023-06-15T08:25:57.339Z,17.70
2023-06-15T08:28:53.131Z,16.90
2023-06-15T08:31:49.539Z,18.40
2023-06-15T08:34:47.049Z,16.20
2023-06-15T08:37:40.910Z,15.80
2023-06-15T08:40:35.419Z,25.50
2023-06-15T08:43:30.447Z,16.90
2023-06-15T08:46:26.530Z,18.20
2023-06-15T08:49:20.781Z,15.30
2023-06-15T08:52:17.239Z,16.80
2023-06-15T08:55:17.193Z,17.20
2023-06-15T08:58:12.349Z,16.40
2023-06-15T09:01:07.067Z,15.70
2023-06-15T09:04:03.491Z,16.10
2023-06-15T09:07:00.412Z,19.40
2023-06-15T09:10:18.668Z,18.20
2023-06-15T09:13:19.667Z,16.50
2023-06-15T09:16:13.982Z,22.00
2023-06-15T09:19:14.421Z,19.90
2023-06-15T09:22:09.998Z,22.00
2023-06-15T09:25:18.489Z,20.70
2023-06-15T09:28:12.232Z,19.30
2023-06-15T09:31:05.892Z,20.20
2023-06-15T09:34:07.594Z,19.60
2023-06-15T09:37:01.524Z,21.00
2023-06-15T09:39:55.643Z,18.40
2023-06-15T09:42:56.958Z,17.60
2023-06-15T09:45:57.696Z,18.50
2023-06-15T09:48:53.804Z,19.90
2023-06-15T09:51:51.185Z,19.60
2023-06-15T09:54:47.555Z,18.60
2023-06-15T09:57:42.946Z,21.40
2023-06-15T10:00:28.257Z,21.50
2023-06-15T10:03:24.386Z,19.70
2023-06-15T10:06:22.102Z,18.90
2023-06-15T10:09:27.376Z,23.40
2023-06-15T10:12:33.672Z,20.80
2023-06-15T10:18:23.351Z,18.20
2023-06-15T10:21:21.620Z,20.90
2023-06-15T10:24:22.150Z,19.10
2023-06-15T10:27:18.157Z,22.70
2023-06-15T10:30:23.014Z,20.80
2023-06-15T10:33:37.627Z,21.40
2023-06-15T10:36:34.393Z,21.70
2023-06-15T10:39:34.564Z,21.90
2023-06-15T10:42:29.792Z,20.00
2023-06-15T10:45:34.993Z,20.50
2023-06-15T10:48:30.666Z,18.70
2023-06-15T10:51:26.285Z,19.80
2023-06-15T10:54:30.060Z,18.90
2023-06-15T10:57:30.916Z,19.80
2023-06-15T11:00:30.616Z,21.30
2023-06-15T11:03:30.416Z,18.90
2023-06-15T11:06:32.846Z,19.80
2023-06-15T11:09:32.306Z,20.10
2023-06-15T11:12:43.045Z,19.80
2023-06-15T11:15:42.720Z,18.40
2023-06-15T11:18:37.547Z,20.40
2023-06-15T11:21:32.461Z,23.50
2023-06-15T11:24:28.308Z,18.00
2023-06-15T11:27:24.071Z,20.40
2023-06-15T11:30:19.409Z,19.20
2023-06-15T11:33:16.774Z,20.60
2023-06-15T11:36:14.299Z,25.50
2023-06-15T11:39:08.592Z,25.80
2023-06-15T11:42:05.288Z,21.60
2023-06-15T11:44:59.026Z,19.70
2023-06-15T11:47:53.830Z,23.20
2023-06-15T11:50:48.590Z,19.80
2023-06-15T11:53:43.284Z,22.60
2023-06-15T11:56:37.640Z,23.30
2023-06-15T11:59:31.816Z,22.30
2023-06-15T12:02:26.288Z,21.00
2023-06-15T12:05:20.547Z,20.80
2023-06-15T12:08:15.116Z,20.20
2023-06-15T12:11:10.463Z,21.60
2023-06-15T12:14:10.924Z,21.70
2023-06-15T12:17:05.146Z,21.10
2023-06-15T12:20:06.438Z,23.10
2023-06-15T12:23:00.471Z,23.20
2023-06-15T12:25:57.469Z,20.90
2023-06-15T12:28:54.122Z,22.30
2023-06-15T12:31:56.964Z,21.30
2023-06-15T12:34:53.625Z,19.80
2023-06-15T12:37:51.129Z,22.30
2023-06-15T12:40:45.987Z,25.70
2023-06-15T12:43:39.895Z,22.30
2023-06-15T12:46:38.297Z,21.30
2023-06-15T12:49:32.794Z,22.90
2023-06-15T12:52:28.377Z,24.80
2023-06-15T12:55:22.522Z,20.20
2023-06-15T12:58:16.926Z,19.40
2023-06-15T13:01:11.650Z,24.50
2023-06-15T13:04:05.690Z,25.90
2023-06-15T13:06:59.822Z,22.40
2023-06-15T13:09:54.306Z,22.30
2023-06-15T13:12:48.897Z,23.30
2023-06-15T13:15:42.807Z,21.70
2023-06-15T13:18:40.231Z,23.50
2023-06-15T13:21:35.458Z,21.70
2023-06-15T13:24:29.508Z,21.10
2023-06-15T13:27:23.603Z,24.00
2023-06-15T13:30:19.444Z,21.00
2023-06-15T13:33:13.792Z,23.70
2023-06-15T13:36:09.195Z,23.00
2023-06-15T13:39:04.089Z,25.60
2023-06-15T13:42:00.999Z,22.10
2023-06-15T13:44:55.600Z,22.00
2023-06-15T13:47:50.695Z,22.30
2023-06-15T13:50:44.830Z,22.40
2023-06-15T13:53:39.253Z,20.90
2023-06-15T13:56:33.464Z,23.50
2023-06-15T13:59:30.883Z,23.20
2023-06-15T14:02:25.058Z,22.50
2023-06-15T14:05:20.035Z,22.50
2023-06-15T14:08:15.094Z,19.10
2023-06-15T14:11:09.102Z,21.40
2023-06-15T14:14:03.723Z,17.00
2023-06-15T14:16:58.790Z,16.90
2023-06-15T14:19:54.189Z,17.80
2023-06-15T14:22:48.707Z,20.20
2023-06-15T14:25:42.739Z,13.30
2023-06-15T14:28:37.019Z,14.90
2023-06-15T14:31:31.323Z,14.50
2023-06-15T14:34:26.939Z,15.00
2023-06-15T14:37:22.020Z,14.80
2023-06-15T14:40:16.700Z,16.50
2023-06-15T14:43:11.843Z,12.40
2023-06-15T14:46:05.805Z,14.60
2023-06-15T14:48:59.805Z,14.10
2023-06-15T14:51:53.862Z,12.20
2023-06-15T14:54:47.977Z,11.50
2023-06-15T14:57:41.898Z,17.10
2023-06-15T15:00:36.047Z,12.30
2023-06-15T15:03:30.222Z,12.50
2023-06-15T15:06:25.056Z,10.70
2023-06-15T15:09:18.914Z,11.40
2023-06-15T15:11:57.901Z,9.50
2023-06-15T15:14:53.217Z,10.60
2023-06-15T15:17:47.268Z,11.00
2023-06-15T15:20:41.381Z,10.20
2023-06-15T15:23:36.540Z,9.20
2023-06-15T15:26:30.708Z,11.30
2023-06-15T15:29:24.633Z,11.30
2023-06-15T15:32:18.719Z,13.40
2023-06-15T15:45:15.868Z,11.20
2023-06-15T15:48:10.610Z,9.30
2023-06-15T15:51:04.672Z,9.20
2023-06-15T15:53:58.892Z,11.60
2023-06-15T15:56:52.968Z,7.70
2023-06-15T15:59:32.472Z,11.70
2023-06-15T16:02:31.686Z,9.30
2023-06-15T16:05:26.115Z,7.70
2023-06-15T16:08:19.960Z,9.30
2023-06-15T16:11:14.082Z,7.70
2023-06-15T16:14:08.233Z,9.30
2023-06-15T16:17:05.363Z,8.30
2023-06-15T16:19:59.113Z,8.70
2023-06-15T16:22:52.921Z,12.00
2023-06-15T16:25:47.273Z,6.60
2023-06-15T16:28:41.458Z,9.20
2023-06-15T16:31:35.699Z,8.00
2023-06-15T16:34:30.271Z,7.90
2023-06-15T16:37:24.721Z,8.50
2023-06-15T16:40:19.262Z,9.00
2023-06-15T16:43:13.550Z,8.50
2023-06-15T16:46:07.307Z,8.80
2023-06-15T16:49:01.282Z,7.10
2023-06-15T16:51:55.130Z,8.70
2023-06-15T16:54:50.029Z,8.10
2023-06-15T16:57:44.198Z,7.10
2023-06-15T17:00:37.989Z,7.10
2023-06-15T17:03:31.834Z,9.10
2023-06-15T17:06:25.689Z,7.30
2023-06-15T17:09:19.657Z,9.10
2023-06-15T17:12:15.076Z,6.70
2023-06-15T17:15:10.445Z,7.00
2023-06-15T17:18:04.305Z,9.20
2023-06-15T17:20:58.143Z,6.60
2023-06-15T17:23:52.253Z,8.40
2023-06-15T17:26:47.449Z,8.20
2023-06-15T17:29:41.340Z,7.00
2023-06-15T17:32:35.476Z,6.00
2023-06-15T17:35:28.143Z,8.30
2023-06-15T17:38:22.310Z,6.70
2023-06-15T17:41:16.302Z,8.30
2023-06-15T17:44:10.079Z,5.60
2023-06-15T17:47:04.127Z,7.60
2023-06-15T17:49:58.350Z,8.90
2023-06-15T17:52:52.303Z,9.80
2023-06-15T17:55:46.280Z,8.00
2023-06-15T17:58:39.918Z,5.90
2023-06-15T18:01:34.826Z,9.20
2023-06-15T18:04:28.857Z,8.20
2023-06-15T18:07:22.552Z,5.90
2023-06-15T18:10:16.475Z,7.30
2023-06-15T18:13:10.507Z,10.20
2023-06-15T18:16:05.194Z,6.60
2023-06-15T18:18:59.006Z,6.40
2023-06-15T18:21:52.956Z,6.50
2023-06-15T18:24:46.667Z,7.00
2023-06-15T18:27:40.804Z,6.60
2023-06-15T18:30:35.151Z,7.60
2023-06-15T18:33:29.547Z,9.00
2023-06-15T18:36:23.501Z,6.80
2023-06-15T18:39:18.719Z,9.60
2023-06-15T18:42:13.227Z,10.40
2023-06-15T18:45:08.523Z,10.90
2023-06-15T18:48:02.651Z,8.40
2023-06-15T18:50:57.486Z,9.10
2023-06-15T18:53:51.726Z,10.00
2023-06-15T18:56:45.553Z,8.80
2023-06-15T18:59:40.037Z,9.20
2023-06-15T19:02:34.433Z,10.30
2023-06-15T19:05:28.716Z,9.20
2023-06-15T19:08:22.752Z,7.70
2023-06-15T19:11:16.662Z,7.20
2023-06-15T19:14:11.301Z,8.10
2023-06-15T19:17:05.318Z,8.60
2023-06-15T19:19:59.215Z,8.80
2023-06-15T19:22:53.180Z,8.80
2023-06-15T19:25:47.011Z,7.50
2023-06-15T19:28:41.082Z,10.20
2023-06-15T19:31:35.604Z,9.10
2023-06-15T19:34:29.504Z,7.60
2023-06-15T19:37:23.447Z,7.90
2023-06-15T19:40:18.270Z,12.40
2023-06-15T19:43:12.285Z,8.70
2023-06-15T19:46:06.116Z,8.30
2023-06-15T19:49:00.057Z,10.30
2023-06-15T19:51:53.882Z,10.90
2023-06-15T19:54:47.790Z,9.80
2023-06-15T19:57:41.748Z,10.90
2023-06-15T20:00:36.094Z,13.20
2023-06-15T20:03:33.365Z,10.70
2023-06-15T20:06:27.664Z,12.60
2023-06-15T20:09:22.025Z,10.10
2023-06-15T20:12:16.291Z,10.30
2023-06-15T20:15:12.756Z,12.40
2023-06-15T20:18:06.835Z,12.00
2023-06-15T20:21:01.297Z,12.90
2023-06-15T20:23:55.888Z,12.30
2023-06-15T20:26:50.379Z,11.10
2023-06-15T20:29:44.338Z,11.40
2023-06-15T20:32:38.363Z,10.30
2023-06-15T20:35:32.430Z,11.00
2023-06-15T20:38:31.000Z,11.90
2023-06-15T20:41:24.765Z,12.60
2023-06-15T20:44:18.851Z,12.00
2023-06-15T20:47:13.027Z,11.70
2023-06-15T20:50:10.613Z,12.90
2023-06-15T20:53:08.446Z,13.10
2023-06-15T20:58:59.148Z,12.80
2023-06-15T21:01:53.492Z,16.40
2023-06-15T21:04:47.480Z,13.00
2023-06-15T21:07:42.046Z,14.90
2023-06-15T21:10:36.025Z,12.90
2023-06-15T21:13:32.009Z,14.30
2023-06-15T21:16:26.132Z,15.50
2023-06-15T21:19:20.302Z,13.90
2023-06-15T21:22:14.406Z,12.60
2023-06-15T21:25:10.125Z,13.80
2023-06-15T21:28:04.191Z,16.30
2023-06-15T21:30:58.166Z,16.10
2023-06-15T21:33:52.051Z,15.60
2023-06-15T21:36:46.108Z,15.50
2023-06-15T21:39:40.224Z,11.10
2023-06-15T21:42:34.533Z,10.60
2023-06-15T21:45:28.609Z,11.20
2023-06-15T21:48:22.688Z,13.70
2023-06-15T21:51:18.012Z,12.00
2023-06-15T21:54:12.380Z,12.80
2023-06-15T21:57:07.561Z,11.20
2023-06-15T22:00:01.373Z,11.90
2023-06-15T22:02:55.327Z,12.10
2023-06-15T22:05:50.011Z,12.40
2023-06-15T22:08:44.113Z,12.00
2023-06-15T22:11:38.794Z,11.90
2023-06-15T22:14:33.279Z,14.20
2023-06-15T22:17:27.533Z,9.30
2023-06-15T22:20:21.985Z,12.70
2023-06-15T22:23:16.460Z,12.30
2023-06-15T22:26:10.682Z,11.10
2023-06-15T22:29:04.528Z,12.10
2023-06-15T22:31:58.631Z,12.40
2023-06-15T22:34:53.324Z,10.90
2023-06-15T22:37:47.383Z,12.10
2023-06-15T22:40:25.747Z,10.00
2023-06-15T22:43:19.904Z,13.40
2023-06-15T22:46:14.395Z,11.60
2023-06-15T22:49:09.645Z,13.70
2023-06-15T22:52:04.270Z,10.30
2023-06-15T22:56:47.966Z,10.90
2023-06-15T22:59:43.309Z,10.00
2023-06-15T23:02:37.794Z,13.30
2023-06-15T23:05:33.813Z,10.60
2023-06-15T23:08:31.681Z,10.80
2023-06-15T23:11:28.274Z,12.50
2023-06-15T23:14:28.172Z,10.50
2023-06-15T23:17:22.994Z,9.80
2023-06-15T23:20:18.926Z,11.50
2023-06-15T23:23:13.646Z,11.90
2023-06-15T23:26:09.493Z,10.20
2023-06-15T23:29:03.488Z,11.40
2023-06-15T23:31:57.414Z,9.50
2023-06-15T23:34:51.311Z,11.80
2023-06-15T23:37:45.386Z,10.60
2023-06-15T23:40:25.837Z,10.60
2023-06-15T23:43:21.312Z,10.20
2023-06-15T23:46:15.553Z,11.60
2023-06-15T23:49:09.565Z,9.40
2023-06-15T23:52:03.765Z,10.60
2023-06-15T23:54:57.928Z,10.10
2023-06-15T23:57:51.926Z,11.00
